createdAt,value
2019-05-03T00:00:31.951Z,27.45
2019-05-03T00:05:41.880Z,20.57
2019-05-03T00:10:51.689Z,28.10
2019-05-03T00:16:21.819Z,27.02
2019-05-03T00:21:29.584Z,20.00
2019-05-03T00:26:37.922Z,21.30
2019-05-03T00:31:47.028Z,18.02
2019-05-03T00:36:55.792Z,17.48
2019-05-03T00:42:04.808Z,21.37
2019-05-03T00:47:13.878Z,22.67
2019-05-03T00:52:23.120Z,20.77
2019-05-03T00:57:32.477Z,22.90
2019-05-03T01:02:42.329Z,17.37
2019-05-03T01:07:52.388Z,14.90
2019-05-03T01:13:01.691Z,15.03
2019-05-03T01:18:12.334Z,13.45
2019-05-03T01:23:21.938Z,17.73
2019-05-03T01:28:32.342Z,15.87
2019-05-03T01:33:40.336Z,18.85
2019-05-03T01:38:48.641Z,15.08
2019-05-03T01:43:57.237Z,14.45
2019-05-03T01:49:06.920Z,20.55
2019-05-03T01:54:15.319Z,17.37
2019-05-03T01:59:23.620Z,15.00
2019-05-03T02:04:33.004Z,14.07
2019-05-03T02:09:41.711Z,16.33
2019-05-03T02:14:51.583Z,13.45
2019-05-03T02:19:59.009Z,15.97
2019-05-03T02:25:08.513Z,21.45
2019-05-03T02:30:17.115Z,15.23
2019-05-03T02:35:25.005Z,15.35
2019-05-03T02:40:33.870Z,13.88
2019-05-03T02:45:45.702Z,16.80
2019-05-03T02:50:56.028Z,12.35
2019-05-03T03:01:11.797Z,12.35
2019-05-03T03:06:23.048Z,15.43
2019-05-03T03:11:32.160Z,15.10
2019-05-03T03:16:40.833Z,13.88
2019-05-03T03:21:50.510Z,13.93
2019-05-03T03:27:00.222Z,13.13
2019-05-03T03:32:12.086Z,13.48
2019-05-03T03:37:21.077Z,17.10
2019-05-03T03:42:30.753Z,15.40
2019-05-03T03:47:40.073Z,15.70
2019-05-03T03:52:49.258Z,17.87
2019-05-03T03:57:57.638Z,11.53
2019-05-03T04:03:06.315Z,16.82
2019-05-03T04:08:28.213Z,16.30
2019-05-03T04:13:39.231Z,11.05
2019-05-03T04:18:49.289Z,15.15
2019-05-03T04:23:58.183Z,10.48
2019-05-03T04:29:07.529Z,14.78
2019-05-03T04:34:16.366Z,10.40
2019-05-03T04:39:25.554Z,16.53
2019-05-03T04:44:35.761Z,14.50
2019-05-03T04:49:42.771Z,16.37
2019-05-03T04:54:56.025Z,10.35
2019-05-03T05:00:06.008Z,15.55
2019-05-03T05:05:15.337Z,14.95
2019-05-03T05:10:27.804Z,10.58
2019-05-03T05:15:35.715Z,11.03
2019-05-03T05:20:45.390Z,10.80
2019-05-03T05:25:56.825Z,14.47
2019-05-03T05:31:05.363Z,12.40
2019-05-03T05:36:15.346Z,10.07
2019-05-03T05:41:24.502Z,11.38
2019-05-03T05:46:35.072Z,7.97
2019-05-03T05:52:04.909Z,13.72
2019-05-03T05:57:34.639Z,8.78
2019-05-03T06:02:44.699Z,10.68
2019-05-03T06:07:54.827Z,10.75
2019-05-03T06:13:04.915Z,9.73
2019-05-03T06:18:14.646Z,9.98
2019-05-03T06:23:24.776Z,10.72
2019-05-03T06:28:35.316Z,11.83
2019-05-03T06:33:45.050Z,13.60
2019-05-03T06:38:54.648Z,15.40
2019-05-03T06:44:04.250Z,16.10
2019-05-03T06:49:11.664Z,16.75
2019-05-03T06:54:25.446Z,9.33
2019-05-03T06:59:31.173Z,11.78
2019-05-03T07:04:40.494Z,9.05
2019-05-03T07:14:57.209Z,7.92
2019-05-03T07:20:05.527Z,8.75
2019-05-03T07:25:14.964Z,7.37
2019-05-03T07:30:24.765Z,12.43
2019-05-03T07:35:32.447Z,11.25
2019-05-03T07:40:41.168Z,14.93
2019-05-03T07:45:49.130Z,14.55
2019-05-03T07:50:57.985Z,9.38
2019-05-03T07:56:07.659Z,13.10
2019-05-03T08:01:17.659Z,7.65
2019-05-03T08:06:25.739Z,11.93
2019-05-03T08:11:35.187Z,12.45
2019-05-03T08:16:45.482Z,12.78
2019-05-03T08:21:52.992Z,13.48
2019-05-03T08:27:01.469Z,12.07
2019-05-03T08:32:09.668Z,9.03
2019-05-03T08:37:19.907Z,14.55
2019-05-03T08:42:28.098Z,12.58
2019-05-03T08:47:36.195Z,9.35
2019-05-03T08:52:45.345Z,13.88
2019-05-03T08:57:55.146Z,16.57
2019-05-03T09:03:05.553Z,13.45
2019-05-03T09:08:15.738Z,9.15
2019-05-03T09:13:25.132Z,11.25
2019-05-03T09:18:35.118Z,12.10
2019-05-03T09:23:44.955Z,14.73
2019-05-03T09:28:52.540Z,11.50
2019-05-03T09:34:00.607Z,15.45
2019-05-03T09:39:10.074Z,7.80
2019-05-03T09:44:17.841Z,16.55
2019-05-03T09:49:25.916Z,10.40
2019-05-03T09:54:34.806Z,10.03
2019-05-03T09:59:55.760Z,12.15
2019-05-03T10:04:52.698Z,19.50
2019-05-03T10:10:00.842Z,16.77
2019-05-03T10:15:10.961Z,15.10
2019-05-03T10:20:20.989Z,14.83
2019-05-03T10:25:30.094Z,46.28
2019-05-03T10:30:39.488Z,28.67
2019-05-03T10:35:59.810Z,62.03
2019-05-03T10:41:09.042Z,57.17
2019-05-03T10:46:16.300Z,46.85
2019-05-03T10:51:25.034Z,59.50
2019-05-03T10:56:35.750Z,58.25
2019-05-03T11:01:45.294Z,51.65
2019-05-03T11:06:54.943Z,92.72
2019-05-03T11:12:05.318Z,41.77
2019-05-03T11:17:14.747Z,42.43
2019-05-03T11:22:22.552Z,46.00
2019-05-03T11:27:31.480Z,33.38
2019-05-03T11:32:40.943Z,22.50
2019-05-03T11:37:49.989Z,32.42
2019-05-03T11:42:59.177Z,56.28
2019-05-03T11:48:07.754Z,34.57
2019-05-03T11:53:17.660Z,21.77
2019-05-03T11:58:27.248Z,17.65
2019-05-03T12:03:36.599Z,15.00
2019-05-03T12:08:44.751Z,14.05
2019-05-03T12:14:02.411Z,13.65
2019-05-03T12:19:15.724Z,20.35
2019-05-03T12:24:11.660Z,28.42
2019-05-03T12:29:20.282Z,18.12
2019-05-03T12:34:28.080Z,13.58
2019-05-03T12:39:36.538Z,12.35
2019-05-03T12:44:45.900Z,14.00
2019-05-03T12:50:15.652Z,20.50
2019-05-03T12:55:25.792Z,16.05
2019-05-03T13:00:36.855Z,17.52
2019-05-03T13:05:44.950Z,14.38
2019-05-03T13:10:52.591Z,13.85
2019-05-03T13:16:04.476Z,11.95
2019-05-03T13:21:17.143Z,12.10
2019-05-03T13:26:25.411Z,17.02
2019-05-03T13:31:34.686Z,12.30
2019-05-03T13:36:45.476Z,15.23
2019-05-03T13:46:58.436Z,13.05
2019-05-03T13:52:06.828Z,17.85
2019-05-03T13:57:15.802Z,21.55
2019-05-03T14:02:26.800Z,20.82
2019-05-03T14:07:35.324Z,23.25
2019-05-03T14:12:45.353Z,14.25
2019-05-03T14:17:52.494Z,20.25
2019-05-03T14:23:02.281Z,16.57
2019-05-03T14:28:16.083Z,12.50
2019-05-03T14:33:18.629Z,17.73
2019-05-03T14:38:28.204Z,14.23
2019-05-03T14:43:37.249Z,17.42
2019-05-03T14:48:46.057Z,17.75
2019-05-03T14:53:57.763Z,16.00
2019-05-03T14:59:07.604Z,18.50
2019-05-03T15:04:15.290Z,17.87
2019-05-03T15:09:25.148Z,15.05
2019-05-03T15:14:34.600Z,23.60
2019-05-03T15:19:46.532Z,21.35
2019-05-03T15:24:54.563Z,21.85
2019-05-03T15:30:04.965Z,21.65
2019-05-03T15:35:15.075Z,23.65
2019-05-03T15:40:22.284Z,23.38
2019-05-03T15:45:31.954Z,25.72
2019-05-03T15:50:39.460Z,26.52
2019-05-03T15:55:49.197Z,25.12
2019-05-03T16:00:56.540Z,24.80
2019-05-03T16:06:06.778Z,26.48
2019-05-03T16:11:15.498Z,23.50
2019-05-03T16:16:24.676Z,28.65
2019-05-03T16:21:34.179Z,25.45
2019-05-03T16:26:44.550Z,20.77
2019-05-03T16:31:51.854Z,22.73
2019-05-03T16:36:58.859Z,16.02
2019-05-03T16:42:06.830Z,13.38
2019-05-03T16:47:15.662Z,15.98
2019-05-03T16:52:45.548Z,13.22
2019-05-03T16:57:54.931Z,13.68
2019-05-03T17:03:02.207Z,11.50
2019-05-03T17:08:11.515Z,11.48
2019-05-03T17:13:19.303Z,10.98
2019-05-03T17:18:27.740Z,13.60
2019-05-03T17:23:35.963Z,14.13
2019-05-03T17:28:44.797Z,15.20
2019-05-03T17:33:54.504Z,12.10
2019-05-03T17:39:04.359Z,13.03
2019-05-03T17:44:14.439Z,8.05
2019-05-03T17:49:22.344Z,9.28
2019-05-03T17:54:30.278Z,8.25
2019-05-03T17:59:39.410Z,14.70
2019-05-03T18:04:48.675Z,13.93
2019-05-03T18:09:57.077Z,11.28
2019-05-03T18:15:25.118Z,9.60
2019-05-03T18:20:34.486Z,11.15
2019-05-03T18:25:41.618Z,11.53
2019-05-03T18:30:50.421Z,10.85
2019-05-03T18:35:58.824Z,8.80
2019-05-03T18:41:06.850Z,12.58
2019-05-03T18:46:16.423Z,9.45
2019-05-03T18:51:25.244Z,8.30
2019-05-03T18:56:34.671Z,10.28
2019-05-03T19:01:42.352Z,7.80
2019-05-03T19:07:02.059Z,8.35
2019-05-03T19:12:00.328Z,6.28
2019-05-03T19:17:09.246Z,6.25
2019-05-03T19:22:16.448Z,8.35
2019-05-03T19:27:25.163Z,10.80
2019-05-03T19:32:35.633Z,8.50
2019-05-03T19:37:46.387Z,8.05
2019-05-03T19:42:52.145Z,7.12
2019-05-03T19:48:00.028Z,9.05
2019-05-03T19:53:09.088Z,9.45
2019-05-03T19:58:16.619Z,14.33
2019-05-03T20:03:25.767Z,9.30
2019-05-03T20:08:35.194Z,8.90
2019-05-03T20:13:44.975Z,13.60
2019-05-03T20:18:52.431Z,8.15
2019-05-03T20:24:00.411Z,8.20
2019-05-03T20:29:08.324Z,9.03
2019-05-03T20:39:48.438Z,10.45
2019-05-03T20:44:56.755Z,11.65
2019-05-03T20:50:08.192Z,9.35
2019-05-03T20:55:17.641Z,10.72
2019-05-03T21:00:26.377Z,10.70
2019-05-03T21:05:35.387Z,11.43
2019-05-03T21:10:44.555Z,9.33
2019-05-03T21:15:52.805Z,8.50
2019-05-03T21:21:01.692Z,10.68
2019-05-03T21:26:13.378Z,11.73
2019-05-03T21:31:51.269Z,11.63
2019-05-03T21:36:59.641Z,10.70
2019-05-03T21:42:07.317Z,14.85
2019-05-03T21:47:16.967Z,12.45
2019-05-03T21:52:25.367Z,14.70
2019-05-03T21:57:34.463Z,14.13
2019-05-03T22:02:43.214Z,12.55
2019-05-03T22:07:51.109Z,8.63
2019-05-03T22:12:59.398Z,10.35
2019-05-03T22:18:07.682Z,10.85
2019-05-03T22:23:16.680Z,11.83
2019-05-03T22:28:24.629Z,11.28
2019-05-03T22:33:32.811Z,23.35
2019-05-03T22:38:40.530Z,16.93
2019-05-03T22:43:49.206Z,18.10
2019-05-03T22:48:57.143Z,17.35
2019-05-03T22:54:05.449Z,19.75
2019-05-03T22:59:14.749Z,23.10
2019-05-03T23:04:25.331Z,40.10
2019-05-03T23:09:32.756Z,32.37
2019-05-03T23:14:54.983Z,29.05
2019-05-03T23:20:04.518Z,22.42
2019-05-03T23:25:11.561Z,22.00
2019-05-03T23:35:50.897Z,18.32
2019-05-03T23:41:00.239Z,18.48
2019-05-03T23:46:08.096Z,23.12
2019-05-03T23:51:17.440Z,22.35
2019-05-03T23:56:25.422Z,27.40
